Impacts METAR Board INFO
IDs:

KCLE - Cleveland/Hopkins In, OH, US

Updated at: 1209 UTC 18 Nov 2017
Potential Impact None Slight Moderate High
Time18/00Z 18/01Z 18/02Z 18/03Z 18/04Z 18/05Z 18/06Z 18/07Z 18/08Z 18/09Z 18/10Z 18/11Z 18/12Z
VIS10 10 10 10 10 10 10 10 6 4 9 10 10
CIG180 200 -- -- -- 150 110 75 65 26 30 31 27
CoverBKNBKNSCTSCTSCTOVCOVCOVCOVCOVCOVCOVCOVC
FltCatVFRVFRVFRVFRVFRVFRVFRVFRVFRMVFRMVFRVFRMVFR
WX---------------RARARA BR-RA-RA--
WDir150170170170170170180190180190190190180
WSpd13 10 11 12 13 13 14 11 11 11 15 10 11
WGst-- -- -- 17 -- -- 21 18 -- 21 23 19 --
Raw hourly METARs
KCLE 172351Z 15013KT 10SM BKN180 06/M01 A3000 RMK AO2 SLP165 T00611011 10083 20056 58023
KCLE 180051Z 17010KT 10SM BKN200 06/M01 A2997 RMK AO2 SLP155 T00561011
KCLE 180151Z 17011KT 10SM SCT220 06/M01 A2993 RMK AO2 SLP141 T00561011
KCLE 180251Z 17012G17KT 10SM SCT200 06/M01 A2991 RMK AO2 SLP132 T00611011 56032
KCLE 180351Z 17013KT 10SM SCT120 SCT200 07/M02 A2984 RMK AO2 PRESFR SLP110 T00671017 $
KCLE 180451Z 17013KT 10SM OVC150 07/M03 A2979 RMK AO2 SLP090 T00721028 400830033 $
KCLE 180551Z 18014G21KT 10SM OVC110 08/M03 A2976 RMK AO2 PK WND 17026/0539 SLP079 T00831028 10083 20056 56050 $
KCLE 180651Z 19011G18KT 10SM -RA OVC075 08/00 A2977 RMK AO2 RAB31 SLP084 P0000 T00780000 $
KCLE 180751Z 18011KT 6SM RA FEW034 OVC065 07/03 A2973 RMK AO2 SLP072 P0019 T00670033 $
KCLE 180900Z 19011G21KT 4SM RA BR BKN026 OVC031 07/06 A2966 RMK AO2 P0003 T00670056 $
KCLE 180951Z 19015G23KT 9SM -RA OVC030 07/05 A2964 RMK AO2 PK WND 21028/0927 SLP040 P0010 T00670050 $
KCLE 181051Z 19010G19KT 10SM -RA OVC031 07/05 A2963 RMK AO2 SLP035 P0005 T00720050 $
KCLE 181151Z 18011KT 10SM OVC027 07/06 A2962 RMK AO2 RAE03 SLP033 P0001 60059 70059 T00720056 10083 20061 58007 $